Woolwine, VA (24185)

2:40 PM EDT on August 30, 2015 (GMT -0400)
Mulberry farm | | Change Station
CLOSE
Current Station
Personal Weather Station
Location: Stuart, VA
Elevation: 1604 ft
Nearby Weather Stations

Elev 1604 ft 36.65 °N, 80.32 °W | Updated 56 seconds ago

Overcast
Overcast
76.9 °F
Feels Like 79 °F
N
5.0
Wind Variable Wind from South
Gusts 7.0 mph

Today
High -- | Low -- °F
--% Chance of Precip.
Yesterday
High -- | Low -- °F
Precip. -- in
6:50 AM 7:52 PM
Full, 98% visible
Pressure 30.19 in
Visibility 10.0 miles
Clouds Clear
Heat Index 79 °F
Dew Point 66 °F
Humidity 70%
Rainfall 0.00 in
Snow Depth Not available.
UV 10 out of 12
Pollen 8.70 out of 12
Air Quality Not available.
Flu Activity Not available.
METAR KMTV 301810Z AUTO 00000KT 10SM CLR 28/17 A3019 RMK AO2 T02760172
Pressure 30.19 in
Visibility 10.0 miles
Clouds Clear
Heat Index 79 °F
Dew Point 66 °F
Humidity 70%
Rainfall 0.00 in
Snow Depth Not available.
UV 10 out of 12
Pollen 8.70 out of 12
Air Quality Not available.
Flu Activity Not available.
METAR KMTV 301810Z AUTO 00000KT 10SM CLR 28/17 A3019 RMK AO2 T02760172

10-Day Weather Forecast

×

Almanac

Astronomy

Aug. 30, 2015 Rise Set
Actual Time
Civil Twilight
Nautical Twilight
Astronomical Twilight
Moon
Length of Visible Light
Length of Day
Tomorrow will be .
, % of the Moon is Illuminated

Today's Extremes

State Highs State Lows

Community

WunderPhotos

Upload Photos

1,851,031 photos uploaded!

WunderBlogs® & News

Nearby

Air Quality

  Air Quality AQ Index Pollutant
Not available.

Snow Depth

Station Depth Elevation

Earthquake Activity

City Distance Mag. Time & Date
Minimum magnitude displayed is 2.5.

Coastal Water Temperatures

Place Temperature

Stations

Nearby Weather Stations

Station Location Temp. Windchill Dew Point Humidity Wind Precip. Elev Updated Type